createdAt,value
2022-10-22T00:00:51.255Z,99.90
2022-10-22T00:03:18.243Z,99.90
2022-10-22T00:05:45.207Z,99.90
2022-10-22T00:08:12.200Z,99.90
2022-10-22T00:10:40.770Z,99.90
2022-10-22T00:13:08.081Z,99.90
2022-10-22T00:15:35.468Z,99.90
2022-10-22T00:18:02.542Z,99.90
2022-10-22T00:20:29.479Z,99.90
2022-10-22T00:22:56.513Z,99.90
2022-10-22T00:25:23.487Z,99.90
2022-10-22T00:27:51.891Z,99.90
2022-10-22T00:30:18.953Z,99.90
2022-10-22T00:32:45.992Z,99.90
2022-10-22T00:35:13.783Z,99.90
2022-10-22T00:37:42.021Z,99.90
2022-10-22T00:40:10.421Z,99.90
2022-10-22T00:42:37.960Z,99.90
2022-10-22T00:45:20.882Z,99.90
2022-10-22T00:47:50.850Z,99.90
2022-10-22T00:50:19.417Z,99.90
2022-10-22T00:52:46.916Z,99.90
2022-10-22T00:55:15.333Z,99.90
2022-10-22T00:57:43.592Z,99.90
2022-10-22T01:00:12.708Z,99.90
2022-10-22T01:02:43.016Z,99.90
2022-10-22T01:05:10.723Z,99.90
2022-10-22T01:07:42.062Z,99.90
2022-10-22T01:10:18.862Z,99.90
2022-10-22T01:12:54.311Z,99.90
2022-10-22T01:15:29.730Z,99.90
2022-10-22T01:18:01.289Z,99.90
2022-10-22T01:21:00.323Z,99.90
2022-10-22T01:23:51.459Z,99.90
2022-10-22T01:29:01.400Z,99.90
2022-10-22T01:31:30.348Z,99.90
2022-10-22T01:33:59.336Z,99.90
2022-10-22T01:36:27.446Z,99.90
2022-10-22T01:38:54.529Z,99.90
2022-10-22T01:41:21.862Z,99.90
2022-10-22T01:43:48.840Z,99.90
2022-10-22T01:46:18.305Z,99.90
2022-10-22T01:48:58.087Z,99.90
2022-10-22T01:51:39.170Z,99.90
2022-10-22T01:54:18.905Z,99.90
2022-10-22T01:56:56.664Z,99.90
2022-10-22T01:59:35.141Z,99.90
2022-10-22T02:02:13.862Z,99.90
2022-10-22T02:04:46.978Z,99.90
2022-10-22T02:07:19.277Z,99.90
2022-10-22T02:09:47.756Z,99.90
2022-10-22T02:12:17.995Z,99.90
2022-10-22T02:14:45.789Z,99.90
2022-10-22T02:17:18.463Z,99.90
2022-10-22T02:19:51.905Z,99.90
2022-10-22T02:22:19.838Z,99.90
2022-10-22T02:24:49.018Z,99.90
2022-10-22T02:27:25.931Z,99.90
2022-10-22T02:30:01.573Z,99.90
2022-10-22T02:32:34.179Z,99.90
2022-10-22T02:35:03.044Z,99.90
2022-10-22T02:37:30.392Z,99.90
2022-10-22T02:39:57.399Z,99.90
2022-10-22T02:42:25.993Z,99.90
2022-10-22T02:44:53.372Z,99.90
2022-10-22T02:47:20.640Z,99.90
2022-10-22T02:49:49.058Z,99.90
2022-10-22T02:52:16.044Z,99.90
2022-10-22T02:54:43.052Z,99.90
2022-10-22T02:57:10.206Z,99.90
2022-10-22T02:59:37.365Z,99.90
2022-10-22T03:02:04.272Z,99.90
2022-10-22T03:04:31.221Z,99.90
2022-10-22T03:06:59.858Z,99.90
2022-10-22T03:09:27.015Z,99.90
2022-10-22T03:11:54.243Z,99.90
2022-10-22T03:14:22.015Z,99.90
2022-10-22T03:16:49.053Z,99.90
2022-10-22T03:19:16.262Z,99.90
2022-10-22T03:21:47.387Z,99.90
2022-10-22T03:24:17.693Z,99.90
2022-10-22T03:26:45.922Z,99.90
2022-10-22T03:29:15.483Z,99.90
2022-10-22T03:31:42.536Z,99.90
2022-10-22T03:34:11.847Z,99.90
2022-10-22T03:36:39.258Z,99.90
2022-10-22T03:39:07.081Z,99.90
2022-10-22T03:41:36.499Z,99.90
2022-10-22T03:44:04.942Z,99.90
2022-10-22T03:46:31.926Z,99.90
2022-10-22T03:48:58.989Z,99.90
2022-10-22T03:51:27.751Z,99.90
2022-10-22T03:53:55.010Z,99.90
2022-10-22T03:58:45.553Z,99.90
2022-10-22T04:01:13.552Z,99.90
2022-10-22T04:03:41.090Z,99.90
2022-10-22T04:06:10.563Z,99.90
2022-10-22T04:08:39.728Z,99.90
2022-10-22T04:11:07.431Z,99.90
2022-10-22T04:13:34.628Z,99.90
2022-10-22T04:16:10.277Z,99.90
2022-10-22T04:18:38.039Z,99.90
2022-10-22T04:21:06.843Z,99.90
2022-10-22T04:23:37.816Z,99.90
2022-10-22T04:26:07.431Z,99.90
2022-10-22T04:28:35.588Z,99.90
2022-10-22T04:31:09.950Z,99.90
2022-10-22T04:33:38.028Z,99.90
2022-10-22T04:36:09.823Z,99.90
2022-10-22T04:38:37.555Z,99.90
2022-10-22T04:41:13.090Z,99.90
2022-10-22T04:43:40.394Z,99.90
2022-10-22T04:46:11.026Z,99.90
2022-10-22T04:48:39.854Z,99.90
2022-10-22T04:51:07.764Z,99.90
2022-10-22T04:53:38.267Z,99.90
2022-10-22T04:56:11.007Z,99.90
2022-10-22T04:58:38.772Z,99.90
2022-10-22T05:01:15.914Z,99.90
2022-10-22T05:03:43.625Z,99.90
2022-10-22T05:08:40.716Z,99.90
2022-10-22T05:11:12.636Z,99.90
2022-10-22T05:13:39.811Z,99.90
2022-10-22T05:16:07.177Z,99.90
2022-10-22T05:18:37.101Z,99.90
2022-10-22T05:21:04.259Z,99.90
2022-10-22T05:23:31.352Z,99.90
2022-10-22T05:26:01.596Z,99.90
2022-10-22T05:28:28.548Z,99.90
2022-10-22T05:30:56.630Z,99.90
2022-10-22T05:33:24.241Z,99.90
2022-10-22T05:35:52.808Z,99.90
2022-10-22T05:38:20.516Z,99.90
2022-10-22T05:40:48.058Z,99.90
2022-10-22T05:43:15.076Z,99.90
2022-10-22T05:45:42.781Z,99.90
2022-10-22T05:48:10.216Z,99.90
2022-10-22T05:50:37.960Z,99.90
2022-10-22T05:53:06.435Z,99.90
2022-10-22T05:55:37.191Z,99.90
2022-10-22T05:58:04.619Z,99.90
2022-10-22T06:00:31.723Z,99.90
2022-10-22T06:02:58.679Z,99.90
2022-10-22T06:05:28.397Z,99.90
2022-10-22T06:07:57.164Z,99.90
2022-10-22T06:10:25.573Z,99.90
2022-10-22T06:12:52.524Z,99.90
2022-10-22T06:15:20.683Z,99.90
2022-10-22T06:17:48.554Z,99.90
2022-10-22T06:20:16.123Z,99.90
2022-10-22T06:22:43.461Z,99.90
2022-10-22T06:25:10.952Z,99.90
2022-10-22T06:27:39.381Z,99.90
2022-10-22T06:30:07.674Z,99.90
2022-10-22T06:32:34.655Z,99.90
2022-10-22T06:35:01.747Z,99.90
2022-10-22T06:37:28.734Z,99.90
2022-10-22T06:39:56.014Z,99.90
2022-10-22T06:42:23.007Z,99.90
2022-10-22T06:44:51.571Z,99.90
2022-10-22T06:47:18.590Z,99.90
2022-10-22T06:49:45.650Z,99.90
2022-10-22T06:52:13.076Z,99.90
2022-10-22T06:54:40.137Z,99.90
2022-10-22T06:57:07.192Z,99.90
2022-10-22T06:59:34.258Z,99.90
2022-10-22T07:02:02.809Z,99.90
2022-10-22T07:04:29.813Z,99.90
2022-10-22T07:06:57.009Z,99.90
2022-10-22T07:09:24.047Z,99.90
2022-10-22T07:11:51.042Z,99.90
2022-10-22T07:14:18.621Z,99.90
2022-10-22T07:16:46.870Z,99.90
2022-10-22T07:19:15.667Z,99.90
2022-10-22T07:21:42.696Z,99.90
2022-10-22T07:24:09.747Z,99.90
2022-10-22T07:26:37.088Z,99.90
2022-10-22T07:29:05.154Z,99.90
2022-10-22T07:31:32.200Z,99.90
2022-10-22T07:33:59.398Z,99.90
2022-10-22T07:36:27.827Z,99.90
2022-10-22T07:38:56.736Z,99.90
2022-10-22T07:41:24.249Z,99.90
2022-10-22T07:43:51.379Z,99.90
2022-10-22T07:46:18.814Z,99.90
2022-10-22T07:48:45.820Z,99.90
2022-10-22T07:51:15.271Z,99.90
2022-10-22T07:53:44.133Z,99.90
2022-10-22T07:56:11.347Z,99.90
2022-10-22T07:58:38.545Z,99.90
2022-10-22T08:01:06.034Z,99.90
2022-10-22T08:03:33.905Z,99.90
2022-10-22T08:06:01.960Z,99.90
2022-10-22T08:08:30.864Z,99.90
2022-10-22T08:11:01.839Z,99.90
2022-10-22T08:13:30.786Z,99.90
2022-10-22T08:15:58.483Z,99.90
2022-10-22T08:18:25.877Z,99.90
2022-10-22T08:20:53.418Z,99.90
2022-10-22T08:23:25.848Z,99.90
2022-10-22T08:25:55.832Z,99.90
2022-10-22T08:28:24.573Z,99.90
2022-10-22T08:30:52.017Z,99.90
2022-10-22T08:33:19.079Z,99.90
2022-10-22T08:35:49.567Z,99.90
2022-10-22T08:38:17.035Z,99.90
2022-10-22T08:43:42.957Z,99.90
2022-10-22T08:46:20.227Z,99.90
2022-10-22T08:48:49.745Z,99.90
2022-10-22T08:51:20.521Z,99.90
2022-10-22T08:54:07.064Z,99.90
2022-10-22T08:56:36.761Z,99.90
2022-10-22T08:59:14.523Z,99.90
2022-10-22T09:01:45.916Z,99.90
2022-10-22T09:04:19.751Z,99.90
2022-10-22T09:06:49.558Z,99.90
2022-10-22T09:09:20.382Z,99.90
2022-10-22T09:11:49.877Z,99.90
2022-10-22T09:14:23.640Z,99.90
2022-10-22T09:17:10.143Z,99.90
2022-10-22T09:19:48.306Z,99.90
2022-10-22T09:22:27.947Z,99.90
2022-10-22T09:25:02.075Z,99.90
2022-10-22T09:27:31.281Z,99.90
2022-10-22T09:30:01.970Z,99.90
2022-10-22T09:32:29.468Z,99.90
2022-10-22T09:34:58.339Z,99.90
2022-10-22T09:37:28.283Z,99.90
2022-10-22T09:39:57.356Z,99.90
2022-10-22T09:42:25.085Z,99.90
2022-10-22T09:44:54.656Z,99.90
2022-10-22T09:47:42.616Z,99.90
2022-10-22T09:50:27.346Z,99.90
2022-10-22T09:53:01.021Z,99.90
2022-10-22T09:55:28.550Z,99.90
2022-10-22T09:57:58.038Z,99.90
2022-10-22T10:00:27.111Z,99.90
2022-10-22T10:02:57.233Z,99.90
2022-10-22T10:05:30.806Z,99.90
2022-10-22T10:07:58.378Z,99.90
2022-10-22T10:10:37.806Z,99.90
2022-10-22T10:13:18.787Z,99.90
2022-10-22T10:15:54.781Z,99.90
2022-10-22T10:18:34.924Z,99.90
2022-10-22T10:21:10.395Z,99.90
2022-10-22T10:23:47.393Z,99.90
2022-10-22T10:26:20.326Z,99.90
2022-10-22T10:29:02.761Z,99.90
2022-10-22T10:31:40.404Z,99.90
2022-10-22T10:34:22.811Z,99.90
2022-10-22T10:37:01.494Z,99.90
2022-10-22T10:39:36.073Z,99.90
2022-10-22T10:42:14.636Z,99.90
2022-10-22T10:44:55.768Z,99.90
2022-10-22T10:47:32.801Z,99.90
2022-10-22T10:51:29.431Z,99.90
2022-10-22T10:54:40.485Z,99.90
2022-10-22T10:57:19.586Z,99.90
2022-10-22T11:00:00.296Z,99.90
2022-10-22T11:02:48.119Z,99.90
2022-10-22T11:05:38.099Z,99.40
2022-10-22T11:08:10.873Z,98.90
2022-10-22T11:10:42.256Z,99.60
2022-10-22T11:13:17.032Z,99.90
2022-10-22T11:15:48.419Z,99.90
2022-10-22T11:18:21.589Z,99.80
2022-10-22T11:20:55.246Z,99.90
2022-10-22T11:23:30.319Z,99.90
2022-10-22T11:26:00.483Z,99.80
2022-10-22T11:28:32.981Z,99.40
2022-10-22T11:31:03.713Z,99.40
2022-10-22T11:33:38.284Z,99.40
2022-10-22T11:36:08.446Z,99.20
2022-10-22T11:38:36.724Z,99.00
2022-10-22T11:41:11.011Z,98.90
2022-10-22T11:43:57.678Z,99.40
2022-10-22T11:46:46.713Z,99.70
2022-10-22T11:49:22.372Z,98.90
2022-10-22T11:51:50.223Z,99.30
2022-10-22T11:54:42.219Z,99.70
2022-10-22T11:57:27.552Z,98.60
2022-10-22T11:59:58.520Z,98.50
2022-10-22T12:02:44.818Z,98.10
2022-10-22T12:05:32.469Z,96.60
2022-10-22T12:08:05.764Z,95.80
2022-10-22T12:10:36.682Z,96.10
2022-10-22T12:13:12.656Z,95.20
2022-10-22T12:15:48.225Z,94.20
2022-10-22T12:18:16.409Z,94.10
2022-10-22T12:20:43.649Z,94.80
2022-10-22T12:23:13.293Z,94.80
2022-10-22T12:25:40.547Z,95.60
2022-10-22T12:28:12.294Z,96.30
2022-10-22T12:30:39.556Z,97.10
2022-10-22T12:33:08.721Z,97.80
2022-10-22T12:35:43.186Z,96.90
2022-10-22T12:38:15.066Z,96.40
2022-10-22T12:40:45.949Z,95.70
2022-10-22T12:43:19.541Z,95.00
2022-10-22T12:45:47.880Z,95.00
2022-10-22T12:48:18.887Z,95.30
2022-10-22T12:50:48.297Z,95.30
2022-10-22T12:53:18.262Z,94.40
2022-10-22T12:55:47.792Z,94.00
2022-10-22T12:58:17.766Z,94.60
2022-10-22T13:00:45.503Z,94.90
2022-10-22T13:03:23.312Z,95.50
2022-10-22T13:05:50.921Z,96.10
2022-10-22T13:08:20.977Z,96.50
2022-10-22T13:10:50.139Z,96.20
2022-10-22T13:13:31.128Z,96.50
2022-10-22T13:16:12.254Z,96.90
2022-10-22T13:18:39.060Z,97.10
2022-10-22T13:21:06.446Z,97.70
2022-10-22T13:23:34.465Z,97.50
2022-10-22T13:26:05.345Z,97.60
2022-10-22T13:28:33.640Z,97.00
2022-10-22T13:32:29.633Z,97.60
2022-10-22T13:35:01.070Z,97.80
2022-10-22T13:37:30.432Z,97.80
2022-10-22T13:39:57.737Z,97.80
2022-10-22T13:42:25.172Z,98.10
2022-10-22T13:44:52.196Z,98.50
2022-10-22T13:47:29.461Z,98.60
2022-10-22T13:49:59.763Z,98.80
2022-10-22T13:52:36.504Z,98.90
2022-10-22T13:55:13.747Z,99.40
2022-10-22T13:57:41.209Z,98.30
2022-10-22T14:00:11.928Z,99.00
2022-10-22T14:02:40.985Z,98.90
2022-10-22T14:05:09.608Z,98.80
2022-10-22T14:07:37.486Z,99.40
2022-10-22T14:10:14.067Z,99.60
2022-10-22T14:12:41.964Z,99.70
2022-10-22T14:15:11.748Z,99.30
2022-10-22T14:17:43.454Z,99.40
2022-10-22T14:20:16.685Z,99.20
2022-10-22T14:22:43.847Z,99.10
2022-10-22T14:25:14.299Z,99.20
2022-10-22T14:27:42.408Z,99.50
2022-10-22T14:30:14.425Z,99.50
2022-10-22T14:32:43.981Z,99.40
2022-10-22T14:35:16.446Z,99.70
2022-10-22T14:37:46.403Z,99.90
2022-10-22T14:40:16.368Z,99.90
2022-10-22T14:42:45.651Z,99.90
2022-10-22T14:45:18.504Z,99.90
2022-10-22T14:47:47.731Z,99.90
2022-10-22T14:50:15.177Z,99.90
2022-10-22T14:52:45.596Z,99.90
2022-10-22T14:55:14.574Z,99.90
2022-10-22T14:57:42.371Z,99.90
2022-10-22T15:00:13.241Z,99.90
2022-10-22T15:02:40.764Z,99.90
2022-10-22T15:05:10.243Z,99.90
2022-10-22T15:07:37.729Z,99.90
2022-10-22T15:10:06.799Z,99.90
2022-10-22T15:12:34.217Z,99.90
2022-10-22T15:15:01.309Z,99.90
2022-10-22T15:17:28.335Z,99.90
2022-10-22T15:19:56.420Z,99.90
2022-10-22T15:22:24.993Z,99.90
2022-10-22T15:24:53.785Z,99.90
2022-10-22T15:27:21.006Z,99.90
2022-10-22T15:29:48.123Z,99.90
2022-10-22T15:32:15.540Z,99.90
2022-10-22T15:34:42.856Z,99.90
2022-10-22T15:37:12.860Z,99.90
2022-10-22T15:39:42.632Z,99.90
2022-10-22T15:42:10.557Z,99.90
2022-10-22T15:44:39.825Z,99.90
2022-10-22T15:47:07.539Z,99.90
2022-10-22T15:49:37.381Z,99.90
2022-10-22T15:52:04.998Z,99.90
2022-10-22T15:54:33.210Z,99.90
2022-10-22T15:57:03.802Z,99.90
2022-10-22T15:59:31.134Z,99.90
2022-10-22T16:01:58.184Z,99.90
2022-10-22T16:04:25.231Z,99.90
2022-10-22T16:06:53.932Z,99.90
2022-10-22T16:09:23.063Z,99.90
2022-10-22T16:11:51.100Z,99.90
2022-10-22T16:14:21.299Z,99.90
2022-10-22T16:16:50.423Z,99.90
2022-10-22T16:19:19.555Z,99.90
2022-10-22T16:21:47.785Z,99.90
2022-10-22T16:24:14.839Z,99.90
2022-10-22T16:26:41.990Z,99.90
2022-10-22T16:29:11.449Z,99.90
2022-10-22T16:31:41.017Z,99.90
2022-10-22T16:34:08.189Z,99.90
2022-10-22T16:36:36.581Z,99.90
2022-10-22T16:39:04.193Z,99.90
2022-10-22T16:41:40.630Z,99.90
2022-10-22T16:44:08.963Z,99.90
2022-10-22T16:46:39.528Z,99.90
2022-10-22T16:49:08.338Z,99.90
2022-10-22T16:51:35.857Z,99.90
2022-10-22T16:54:05.549Z,99.90
2022-10-22T16:56:36.736Z,99.90
2022-10-22T16:59:03.840Z,99.90
2022-10-22T17:01:32.239Z,99.90
2022-10-22T17:04:01.351Z,99.90
2022-10-22T17:06:30.027Z,99.90
2022-10-22T17:08:57.850Z,99.90
2022-10-22T17:11:25.267Z,99.90
2022-10-22T17:13:54.615Z,99.90
2022-10-22T17:16:23.723Z,99.90
2022-10-22T17:18:52.768Z,99.90
2022-10-22T17:21:20.767Z,99.90
2022-10-22T17:23:53.421Z,99.90
2022-10-22T17:26:22.872Z,99.90
2022-10-22T17:28:50.976Z,99.90
2022-10-22T17:31:19.927Z,99.90
2022-10-22T17:33:48.098Z,99.90
2022-10-22T17:36:16.287Z,99.90
2022-10-22T17:38:45.386Z,99.90
2022-10-22T17:41:17.759Z,99.90
2022-10-22T17:46:20.264Z,99.90
2022-10-22T17:48:49.877Z,99.90
2022-10-22T17:51:17.488Z,99.90
2022-10-22T17:53:46.102Z,99.90
2022-10-22T17:56:16.759Z,99.90
2022-10-22T17:58:44.815Z,99.90
2022-10-22T18:01:21.387Z,99.90
2022-10-22T18:03:49.086Z,99.90
2022-10-22T18:06:16.227Z,99.90
2022-10-22T18:08:43.599Z,99.90
2022-10-22T18:11:13.199Z,99.90
2022-10-22T18:13:42.378Z,99.90
2022-10-22T18:16:09.784Z,99.90
2022-10-22T18:18:37.260Z,99.90
2022-10-22T18:21:05.336Z,99.90
2022-10-22T18:23:33.363Z,99.90
2022-10-22T18:26:00.592Z,99.90
2022-10-22T18:28:27.597Z,99.90
2022-10-22T18:30:56.136Z,99.90
2022-10-22T18:33:24.388Z,99.90
2022-10-22T18:35:53.165Z,99.90
2022-10-22T18:38:23.805Z,99.90
2022-10-22T18:40:51.090Z,99.90
2022-10-22T18:43:18.917Z,99.90
2022-10-22T18:45:47.587Z,99.90
2022-10-22T18:48:18.605Z,99.90
2022-10-22T18:50:47.346Z,99.90
2022-10-22T18:53:16.413Z,99.90
2022-10-22T18:55:43.929Z,99.90
2022-10-22T18:58:11.035Z,99.90
2022-10-22T19:00:38.809Z,99.90
2022-10-22T19:03:06.144Z,99.90
2022-10-22T19:05:34.807Z,99.90
2022-10-22T19:08:01.987Z,99.90
2022-10-22T19:10:29.157Z,99.90
2022-10-22T19:12:56.230Z,99.90
2022-10-22T19:15:23.415Z,99.90
2022-10-22T19:17:50.762Z,99.90
2022-10-22T19:20:17.783Z,99.90
2022-10-22T19:22:46.617Z,99.90
2022-10-22T19:25:13.644Z,99.90
2022-10-22T19:27:41.150Z,99.90
2022-10-22T19:30:09.515Z,99.90
2022-10-22T19:32:36.806Z,99.90
2022-10-22T19:35:04.365Z,99.90
2022-10-22T19:37:31.673Z,99.90
2022-10-22T19:40:00.821Z,99.90
2022-10-22T19:42:27.895Z,99.90
2022-10-22T19:44:55.239Z,99.90
2022-10-22T19:47:24.794Z,99.90
2022-10-22T19:49:51.930Z,99.90
2022-10-22T19:52:19.534Z,99.90
2022-10-22T19:54:46.873Z,99.90
2022-10-22T19:57:17.686Z,99.90
2022-10-22T19:59:45.126Z,99.90
2022-10-22T20:02:15.682Z,99.90
2022-10-22T20:04:45.650Z,99.90
2022-10-22T20:07:16.138Z,99.90
2022-10-22T20:09:43.537Z,99.90
2022-10-22T20:12:10.555Z,99.90
2022-10-22T20:14:40.630Z,99.90
2022-10-22T20:17:07.766Z,99.90
2022-10-22T20:19:34.940Z,99.90
2022-10-22T20:22:02.004Z,99.90
2022-10-22T20:24:29.109Z,99.90
2022-10-22T20:26:56.394Z,99.90
2022-10-22T20:29:23.698Z,99.90
2022-10-22T20:31:52.373Z,99.90
2022-10-22T20:34:19.585Z,99.90
2022-10-22T20:36:47.508Z,99.90
2022-10-22T20:39:15.912Z,99.90
2022-10-22T20:41:43.050Z,99.90
2022-10-22T20:44:14.343Z,99.90
2022-10-22T20:46:41.770Z,99.90
2022-10-22T20:49:13.309Z,99.90
2022-10-22T20:51:40.726Z,99.90
2022-10-22T20:54:08.837Z,99.90
2022-10-22T20:56:37.818Z,99.90
2022-10-22T20:59:05.727Z,99.90
2022-10-22T21:01:35.896Z,99.90
2022-10-22T21:04:03.722Z,99.90
2022-10-22T21:06:32.404Z,99.90
2022-10-22T21:08:59.946Z,99.90
2022-10-22T21:11:29.010Z,99.90
2022-10-22T21:13:56.324Z,99.90
2022-10-22T21:16:23.940Z,99.90
2022-10-22T21:18:51.724Z,99.90
2022-10-22T21:21:20.287Z,99.90
2022-10-22T21:23:50.335Z,99.90
2022-10-22T21:26:18.682Z,99.90
2022-10-22T21:28:49.175Z,99.90
2022-10-22T21:31:33.552Z,99.90
2022-10-22T21:34:00.573Z,99.90
2022-10-22T21:36:27.856Z,99.90
2022-10-22T21:38:56.614Z,99.90
2022-10-22T21:41:24.273Z,99.90
2022-10-22T21:43:51.800Z,99.90
2022-10-22T21:46:21.101Z,99.90
2022-10-22T21:48:48.058Z,99.90
2022-10-22T21:51:15.988Z,99.90
2022-10-22T21:54:54.036Z,99.90
2022-10-22T21:57:21.522Z,99.90
2022-10-22T21:59:51.662Z,99.90
2022-10-22T22:02:19.031Z,99.90
2022-10-22T22:04:46.375Z,99.90
2022-10-22T22:07:13.521Z,99.90
2022-10-22T22:09:40.636Z,99.90
2022-10-22T22:12:09.466Z,99.90
2022-10-22T22:14:36.625Z,99.90
2022-10-22T22:17:03.764Z,99.90
2022-10-22T22:19:30.772Z,99.90
2022-10-22T22:21:57.780Z,99.90
2022-10-22T22:24:25.447Z,99.90
2022-10-22T22:26:52.520Z,99.90
2022-10-22T22:29:21.381Z,99.90
2022-10-22T22:31:48.363Z,99.90
2022-10-22T22:34:18.995Z,99.90
2022-10-22T22:36:48.340Z,99.90
2022-10-22T22:39:17.377Z,99.90
2022-10-22T22:41:44.977Z,99.90
2022-10-22T22:44:12.150Z,99.90
2022-10-22T22:46:40.898Z,99.90
2022-10-22T22:49:08.260Z,99.90
2022-10-22T22:51:35.306Z,99.90
2022-10-22T22:54:02.622Z,99.90
2022-10-22T22:56:31.108Z,99.90
2022-10-22T22:58:58.473Z,99.90
2022-10-22T23:01:33.076Z,99.90
2022-10-22T23:04:03.604Z,99.90
2022-10-22T23:06:33.234Z,99.90
2022-10-22T23:09:00.497Z,99.90
2022-10-22T23:11:29.037Z,99.90
2022-10-22T23:14:00.484Z,99.90
2022-10-22T23:16:34.340Z,99.90
2022-10-22T23:19:03.803Z,99.90
2022-10-22T23:21:36.635Z,99.90
2022-10-22T23:24:06.902Z,99.90
2022-10-22T23:26:35.921Z,99.90
2022-10-22T23:29:03.768Z,99.90
2022-10-22T23:31:31.627Z,99.90
2022-10-22T23:33:58.855Z,99.90
2022-10-22T23:36:27.568Z,99.90
2022-10-22T23:38:55.769Z,99.90
2022-10-22T23:41:22.776Z,99.90
2022-10-22T23:43:52.633Z,99.90
2022-10-22T23:46:19.660Z,99.90
2022-10-22T23:48:49.792Z,99.90
2022-10-22T23:51:22.787Z,99.90
2022-10-22T23:53:57.299Z,99.90
2022-10-22T23:56:24.787Z,99.90
2022-10-22T23:58:52.679Z,99.90
